createdAt,value
2018-06-05T00:01:06.694Z,15.41
2018-06-05T00:02:14.775Z,15.33
2018-06-05T00:03:23.047Z,15.33
2018-06-05T00:04:31.108Z,15.26
2018-06-05T00:05:39.186Z,15.19
2018-06-05T00:06:47.244Z,15.14
2018-06-05T00:07:55.304Z,15.22
2018-06-05T00:09:03.376Z,15.11
2018-06-05T00:10:11.445Z,15.05
2018-06-05T00:11:19.515Z,15.10
2018-06-05T00:12:27.572Z,15.07
2018-06-05T00:13:35.636Z,15.04
2018-06-05T00:14:43.710Z,15.07
2018-06-05T00:15:51.771Z,14.97
2018-06-05T00:16:59.831Z,15.02
2018-06-05T00:18:07.906Z,14.96
2018-06-05T00:19:16.004Z,15.10
2018-06-05T00:20:24.014Z,15.04
2018-06-05T00:21:32.102Z,14.97
2018-06-05T00:22:40.181Z,14.99
2018-06-05T00:23:48.242Z,14.96
2018-06-05T00:24:56.310Z,14.94
2018-06-05T00:26:04.365Z,15.10
2018-06-05T00:27:12.443Z,14.96
2018-06-05T00:28:20.515Z,14.97
2018-06-05T00:29:28.831Z,15.00
2018-06-05T00:30:36.633Z,14.86
2018-06-05T00:31:44.701Z,14.89
2018-06-05T00:32:52.768Z,14.89
2018-06-05T00:34:00.842Z,14.89
2018-06-05T00:35:08.917Z,14.78
2018-06-05T00:36:16.984Z,14.77
2018-06-05T00:37:25.156Z,14.67
2018-06-05T00:38:33.097Z,14.68
2018-06-05T00:39:41.174Z,14.62
2018-06-05T00:40:49.237Z,14.53
2018-06-05T00:41:57.563Z,14.51
2018-06-05T00:43:05.369Z,14.55
2018-06-05T00:44:13.441Z,14.53
2018-06-05T00:45:21.505Z,14.53
2018-06-05T00:46:29.572Z,14.53
2018-06-05T00:47:37.668Z,14.51
2018-06-05T00:48:45.702Z,14.45
2018-06-05T00:49:53.766Z,14.49
2018-06-05T00:51:01.834Z,14.52
2018-06-05T00:52:09.892Z,14.52
2018-06-05T00:53:17.963Z,14.49
2018-06-05T00:54:26.020Z,14.53
2018-06-05T00:55:34.066Z,14.53
2018-06-05T00:56:42.224Z,14.43
2018-06-05T00:57:50.232Z,14.49
2018-06-05T00:58:58.303Z,14.44
2018-06-05T01:00:06.410Z,14.61
2018-06-05T01:01:14.406Z,14.52
2018-06-05T01:02:22.497Z,14.49
2018-06-05T01:03:30.565Z,14.41
2018-06-05T01:04:38.637Z,14.41
2018-06-05T01:05:46.904Z,14.38
2018-06-05T01:06:54.973Z,14.41
2018-06-05T01:08:03.036Z,14.41
2018-06-05T01:09:11.089Z,14.40
2018-06-05T01:10:19.168Z,14.31
2018-06-05T01:11:27.244Z,14.28
2018-06-05T01:12:35.298Z,14.26
2018-06-05T01:13:43.363Z,14.23
2018-06-05T01:14:51.434Z,14.15
2018-06-05T01:15:59.495Z,14.16
2018-06-05T01:17:07.557Z,14.18
2018-06-05T01:18:15.712Z,14.22
2018-06-05T01:19:23.687Z,14.23
2018-06-05T01:20:31.751Z,14.19
2018-06-05T01:21:39.829Z,14.08
2018-06-05T01:22:47.936Z,14.15
2018-06-05T01:23:55.965Z,14.07
2018-06-05T01:25:03.998Z,14.18
2018-06-05T01:26:12.090Z,14.18
2018-06-05T01:27:20.419Z,14.26
2018-06-05T01:28:28.213Z,14.20
2018-06-05T01:29:36.287Z,14.28
2018-06-05T01:30:44.321Z,14.25
2018-06-05T01:31:52.411Z,14.19
2018-06-05T01:33:00.487Z,14.15
2018-06-05T01:34:08.552Z,14.16
2018-06-05T01:35:16.962Z,14.05
2018-06-05T01:36:24.657Z,14.08
2018-06-05T01:37:32.749Z,13.97
2018-06-05T01:38:40.807Z,13.97
2018-06-05T01:39:48.880Z,13.91
2018-06-05T01:40:56.955Z,13.86
2018-06-05T01:42:05.018Z,13.89
2018-06-05T01:43:13.083Z,13.91
2018-06-05T01:44:21.182Z,13.86
2018-06-05T01:45:29.215Z,13.89
2018-06-05T01:46:37.294Z,13.86
2018-06-05T01:47:45.351Z,13.78
2018-06-05T01:48:53.420Z,13.76
2018-06-05T01:50:01.572Z,13.75
2018-06-05T01:51:09.552Z,13.79
2018-06-05T01:52:17.604Z,13.79
2018-06-05T01:53:25.671Z,13.89
2018-06-05T01:54:34.043Z,13.82
2018-06-05T01:55:41.837Z,13.80
2018-06-05T01:56:49.885Z,13.83
2018-06-05T01:57:57.936Z,13.79
2018-06-05T01:59:06.005Z,13.76
2018-06-05T02:00:14.055Z,13.79
2018-06-05T02:01:22.137Z,13.79
2018-06-05T02:02:30.201Z,13.78
2018-06-05T02:03:38.260Z,13.76
2018-06-05T02:04:46.327Z,13.85
2018-06-05T02:05:54.374Z,13.82
2018-06-05T02:07:02.472Z,13.87
2018-06-05T02:08:10.517Z,13.79
2018-06-05T02:09:18.599Z,13.83
2018-06-05T02:10:26.665Z,13.78
2018-06-05T02:11:34.726Z,13.79
2018-06-05T02:12:42.793Z,13.86
2018-06-05T02:13:50.870Z,13.94
2018-06-05T02:14:58.940Z,13.86
2018-06-05T02:16:07.002Z,13.94
2018-06-05T02:17:15.067Z,13.86
2018-06-05T02:18:23.132Z,13.93
2018-06-05T02:19:31.196Z,13.91
2018-06-05T02:20:39.266Z,13.80
2018-06-05T02:21:47.313Z,13.80
2018-06-05T02:22:55.385Z,13.78
2018-06-05T02:24:03.471Z,13.76
2018-06-05T02:25:11.538Z,13.79
2018-06-05T02:26:19.583Z,13.75
2018-06-05T02:27:27.653Z,13.75
2018-06-05T02:28:35.728Z,13.79
2018-06-05T02:29:43.773Z,13.85
2018-06-05T02:30:51.860Z,13.76
2018-06-05T02:31:59.915Z,13.86
2018-06-05T02:33:07.995Z,13.79
2018-06-05T02:34:16.130Z,13.79
2018-06-05T02:35:24.109Z,13.82
2018-06-05T02:36:32.437Z,13.68
2018-06-05T02:37:40.239Z,13.80
2018-06-05T02:38:48.313Z,13.76
2018-06-05T02:39:56.388Z,13.70
2018-06-05T02:41:04.420Z,13.70
2018-06-05T02:42:12.518Z,13.73
2018-06-05T02:43:20.574Z,13.67
2018-06-05T02:44:28.672Z,13.73
2018-06-05T02:45:36.701Z,13.68
2018-06-05T02:46:44.774Z,13.70
2018-06-05T02:47:52.833Z,13.68
2018-06-05T02:49:00.900Z,13.73
2018-06-05T02:50:08.970Z,13.76
2018-06-05T02:51:17.051Z,13.78
2018-06-05T02:52:25.110Z,13.86
2018-06-05T02:53:33.182Z,13.86
2018-06-05T02:54:41.258Z,13.86
2018-06-05T02:55:49.322Z,13.86
2018-06-05T02:56:57.380Z,14.00
2018-06-05T02:58:05.445Z,13.97
2018-06-05T02:59:13.511Z,14.00
2018-06-05T03:00:21.583Z,14.03
2018-06-05T03:01:29.646Z,13.94
2018-06-05T03:02:37.711Z,13.98
2018-06-05T03:03:45.782Z,14.05
2018-06-05T03:04:53.832Z,14.11
2018-06-05T03:06:01.924Z,14.05
2018-06-05T03:07:09.950Z,14.05
2018-06-05T03:08:18.039Z,14.07
2018-06-05T03:09:26.110Z,14.05
2018-06-05T03:10:34.356Z,14.00
2018-06-05T03:11:42.434Z,14.04
2018-06-05T03:12:50.553Z,14.04
2018-06-05T03:13:58.561Z,14.04
2018-06-05T03:15:06.629Z,14.05
2018-06-05T03:16:14.696Z,14.05
2018-06-05T03:17:22.764Z,14.03
2018-06-05T03:18:30.838Z,14.16
2018-06-05T03:19:38.902Z,14.07
2018-06-05T03:20:46.960Z,14.00
2018-06-05T03:21:55.383Z,14.07
2018-06-05T03:23:03.093Z,13.97
2018-06-05T03:24:11.170Z,13.89
2018-06-05T03:25:19.236Z,13.89
2018-06-05T03:26:27.296Z,13.89
2018-06-05T03:27:35.404Z,13.87
2018-06-05T03:28:43.446Z,13.85
2018-06-05T03:29:51.497Z,13.78
2018-06-05T03:30:59.574Z,13.80
2018-06-05T03:32:07.640Z,13.79
2018-06-05T03:33:15.696Z,13.76
2018-06-05T03:34:23.762Z,13.73
2018-06-05T03:35:31.827Z,13.65
2018-06-05T03:36:39.912Z,13.68
2018-06-05T03:37:48.190Z,13.65
2018-06-05T03:38:56.246Z,13.68
2018-06-05T03:40:04.297Z,13.70
2018-06-05T03:41:12.379Z,13.61
2018-06-05T03:42:20.431Z,13.71
2018-06-05T03:43:28.526Z,13.70
2018-06-05T03:44:36.576Z,13.71
2018-06-05T03:45:44.627Z,13.75
2018-06-05T03:46:52.709Z,13.75
2018-06-05T03:48:00.783Z,13.78
2018-06-05T03:49:08.830Z,13.79
2018-06-05T03:50:16.907Z,13.83
2018-06-05T03:51:24.998Z,13.86
2018-06-05T03:52:33.036Z,13.80
2018-06-05T03:53:41.096Z,13.80
2018-06-05T03:54:49.178Z,13.83
2018-06-05T03:55:57.232Z,13.79
2018-06-05T03:57:05.328Z,13.80
2018-06-05T03:58:13.377Z,13.80
2018-06-05T03:59:21.456Z,13.83
2018-06-05T04:00:29.514Z,13.79
2018-06-05T04:01:37.574Z,13.85
2018-06-05T04:02:45.641Z,13.83
2018-06-05T04:03:53.699Z,13.93
2018-06-05T04:05:01.785Z,13.94
2018-06-05T04:06:09.835Z,14.01
2018-06-05T04:07:17.915Z,14.03
2018-06-05T04:08:25.977Z,14.05
2018-06-05T04:09:34.032Z,14.11
2018-06-05T04:10:42.105Z,14.08
2018-06-05T04:11:50.437Z,14.12
2018-06-05T04:12:58.514Z,14.11
2018-06-05T04:14:06.313Z,14.25
2018-06-05T04:15:14.360Z,14.25
2018-06-05T04:16:22.732Z,14.25
2018-06-05T04:17:30.502Z,14.28
2018-06-05T04:18:39.521Z,14.33
2018-06-05T04:19:46.669Z,14.33
2018-06-05T04:20:54.691Z,14.37
2018-06-05T04:22:02.789Z,14.38
2018-06-05T04:23:10.849Z,14.41
2018-06-05T04:24:18.910Z,14.38
2018-06-05T04:25:26.969Z,14.41
2018-06-05T04:26:35.094Z,14.43
2018-06-05T04:27:43.114Z,14.49
2018-06-05T04:28:51.184Z,14.53
2018-06-05T04:29:59.243Z,14.52
2018-06-05T04:31:07.323Z,14.51
2018-06-05T04:32:15.476Z,14.59
2018-06-05T04:33:23.453Z,14.56
2018-06-05T04:34:31.503Z,14.62
2018-06-05T04:35:39.584Z,14.62
2018-06-05T04:36:47.643Z,14.67
2018-06-05T04:37:55.699Z,14.77
2018-06-05T04:39:03.776Z,14.86
2018-06-05T04:40:12.124Z,14.82
2018-06-05T04:41:19.918Z,14.87
2018-06-05T04:42:27.981Z,14.92
2018-06-05T04:43:36.053Z,14.99
2018-06-05T04:44:44.093Z,14.94
2018-06-05T04:45:52.180Z,15.00
2018-06-05T04:47:00.255Z,14.97
2018-06-05T04:48:08.318Z,15.12
2018-06-05T04:49:16.389Z,15.10
2018-06-05T04:50:24.432Z,15.11
2018-06-05T04:51:32.513Z,15.10
2018-06-05T04:52:40.589Z,15.10
2018-06-05T04:53:48.656Z,15.08
2018-06-05T04:54:56.712Z,15.12
2018-06-05T04:56:04.784Z,15.07
2018-06-05T04:57:13.056Z,15.17
2018-06-05T04:58:21.125Z,15.22
2018-06-05T04:59:29.180Z,15.29
2018-06-05T05:00:37.254Z,15.37
2018-06-05T05:01:45.336Z,15.48
2018-06-05T05:02:53.390Z,15.55
2018-06-05T05:04:01.455Z,15.76
2018-06-05T05:05:09.536Z,15.88
2018-06-05T05:06:17.592Z,16.08
2018-06-05T05:07:25.665Z,16.10
2018-06-05T05:08:33.709Z,16.18
2018-06-05T05:09:41.975Z,16.28
2018-06-05T05:10:50.324Z,16.26
2018-06-05T05:11:59.428Z,16.24
2018-06-05T05:13:06.682Z,16.18
2018-06-05T05:14:14.601Z,16.25
2018-06-05T05:15:22.775Z,16.16
2018-06-05T05:16:30.679Z,16.29
2018-06-05T05:17:38.917Z,16.34
2018-06-05T05:18:46.929Z,16.34
2018-06-05T05:19:55.047Z,16.41
2018-06-05T05:21:02.895Z,16.40
2018-06-05T05:22:11.220Z,16.49
2018-06-05T05:23:20.396Z,16.40
2018-06-05T05:24:27.316Z,16.47
2018-06-05T05:25:35.412Z,16.54
2018-06-05T05:26:43.385Z,16.54
2018-06-05T05:27:51.871Z,16.74
2018-06-05T05:28:59.636Z,16.72
2018-06-05T05:30:07.546Z,16.80
2018-06-05T05:31:15.748Z,16.74
2018-06-05T05:32:24.679Z,16.79
2018-06-05T05:33:31.885Z,16.84
2018-06-05T05:34:39.877Z,16.77
2018-06-05T05:35:48.014Z,16.87
2018-06-05T05:36:55.984Z,16.99
2018-06-05T05:38:04.263Z,16.89
2018-06-05T05:39:12.144Z,16.97
2018-06-05T05:40:20.321Z,16.98
2018-06-05T05:41:28.249Z,17.12
2018-06-05T05:42:37.426Z,17.12
2018-06-05T05:43:44.676Z,17.10
2018-06-05T05:44:52.981Z,17.10
2018-06-05T05:46:00.858Z,17.12
2018-06-05T05:47:08.979Z,17.12
2018-06-05T05:48:18.235Z,17.13
2018-06-05T05:49:25.080Z,17.12
2018-06-05T05:50:32.974Z,17.19
2018-06-05T05:51:41.156Z,17.23
2018-06-05T05:52:50.303Z,17.22
2018-06-05T05:53:58.460Z,17.19
2018-06-05T05:55:05.325Z,17.27
2018-06-05T05:56:13.452Z,17.16
2018-06-05T05:57:22.200Z,17.20
2018-06-05T05:58:29.570Z,17.41
2018-06-05T05:59:37.973Z,17.52
2018-06-05T06:00:45.719Z,17.54
2018-06-05T06:01:54.126Z,17.78
2018-06-05T06:03:01.805Z,17.93
2018-06-05T06:04:09.908Z,18.05
2018-06-05T06:05:17.924Z,18.23
2018-06-05T06:06:25.915Z,18.26
2018-06-05T06:07:34.130Z,18.43
2018-06-05T06:08:42.190Z,18.63
2018-06-05T06:09:50.135Z,18.71
2018-06-05T06:10:58.280Z,18.82
2018-06-05T06:12:06.822Z,19.08
2018-06-05T06:13:14.864Z,19.27
2018-06-05T06:14:22.579Z,19.39
2018-06-05T06:15:30.639Z,19.45
2018-06-05T06:16:38.613Z,19.41
2018-06-05T06:17:46.778Z,19.48
2018-06-05T06:18:54.846Z,19.53
2018-06-05T06:20:02.814Z,19.48
2018-06-05T06:21:10.938Z,19.24
2018-06-05T06:22:19.181Z,19.35
2018-06-05T06:23:27.200Z,19.35
2018-06-05T06:24:35.377Z,19.38
2018-06-05T06:25:43.440Z,19.38
2018-06-05T06:26:51.528Z,19.34
2018-06-05T06:28:00.856Z,19.27
2018-06-05T06:29:07.686Z,19.29
2018-06-05T06:30:15.756Z,19.23
2018-06-05T06:31:24.131Z,19.19
2018-06-05T06:32:31.864Z,19.19
2018-06-05T06:33:39.894Z,19.07
2018-06-05T06:34:47.893Z,19.19
2018-06-05T06:35:56.107Z,19.15
2018-06-05T06:37:04.098Z,19.16
2018-06-05T06:38:12.141Z,19.24
2018-06-05T06:39:20.249Z,19.23
2018-06-05T06:40:28.381Z,19.22
2018-06-05T06:41:36.449Z,19.15
2018-06-05T06:42:44.480Z,19.11
2018-06-05T06:43:53.346Z,19.16
2018-06-05T06:45:00.643Z,19.23
2018-06-05T06:46:08.765Z,19.26
2018-06-05T06:47:16.750Z,19.29
2018-06-05T06:48:24.770Z,19.35
2018-06-05T06:49:32.989Z,19.35
2018-06-05T06:50:41.141Z,19.30
2018-06-05T06:51:49.114Z,19.38
2018-06-05T06:52:57.186Z,19.39
2018-06-05T06:54:05.130Z,19.49
2018-06-05T06:55:13.230Z,19.56
2018-06-05T06:56:21.340Z,19.56
2018-06-05T06:57:30.232Z,19.39
2018-06-05T06:58:37.537Z,19.56
2018-06-05T06:59:45.595Z,19.55
2018-06-05T07:00:54.802Z,19.59
2018-06-05T07:02:01.922Z,19.52
2018-06-05T07:03:09.930Z,19.55
2018-06-05T07:04:17.960Z,19.67
2018-06-05T07:05:26.155Z,19.72
2018-06-05T07:06:34.139Z,19.82
2018-06-05T07:07:42.240Z,19.87
2018-06-05T07:08:50.234Z,19.84
2018-06-05T07:09:58.192Z,19.87
2018-06-05T07:11:06.463Z,20.00
2018-06-05T07:12:14.503Z,20.10
2018-06-05T07:13:22.653Z,20.24
2018-06-05T07:14:30.526Z,20.49
2018-06-05T07:15:38.687Z,20.56
2018-06-05T07:16:46.785Z,20.70
2018-06-05T07:17:54.845Z,20.68
2018-06-05T07:19:02.949Z,20.78
2018-06-05T07:20:10.982Z,20.82
2018-06-05T07:21:19.033Z,20.80
2018-06-05T07:22:27.124Z,20.53
2018-06-05T07:23:35.206Z,20.56
2018-06-05T07:24:43.357Z,20.50
2018-06-05T07:25:51.168Z,20.75
2018-06-05T07:26:59.682Z,20.92
2018-06-05T07:28:07.481Z,21.07
2018-06-05T07:29:15.502Z,21.15
2018-06-05T07:30:23.596Z,21.23
2018-06-05T07:31:31.661Z,21.30
2018-06-05T07:32:39.798Z,21.30
2018-06-05T07:33:47.834Z,21.33
2018-06-05T07:34:55.899Z,21.33
2018-06-05T07:36:03.952Z,21.30
2018-06-05T07:37:12.372Z,21.35
2018-06-05T07:38:20.136Z,21.04
2018-06-05T07:39:28.234Z,20.85
2018-06-05T07:40:36.304Z,20.74
2018-06-05T07:41:44.375Z,20.63
2018-06-05T07:42:52.478Z,20.77
2018-06-05T07:44:00.525Z,20.78
2018-06-05T07:45:08.906Z,20.90
2018-06-05T07:46:16.492Z,20.95
2018-06-05T07:47:24.685Z,21.04
2018-06-05T07:48:32.828Z,21.00
2018-06-05T07:49:40.958Z,21.19
2018-06-05T07:50:48.991Z,21.38
2018-06-05T07:51:57.111Z,21.66
2018-06-05T07:53:05.103Z,21.70
2018-06-05T07:54:13.229Z,21.99
2018-06-05T07:55:21.267Z,22.30
2018-06-05T07:56:29.357Z,22.06
2018-06-05T07:57:36.823Z,21.97
2018-06-05T07:58:44.880Z,22.30
2018-06-05T07:59:52.965Z,23.08
2018-06-05T08:01:01.036Z,23.56
2018-06-05T08:02:09.109Z,23.51
2018-06-05T08:03:17.203Z,23.82
2018-06-05T08:04:25.300Z,24.24
2018-06-05T08:05:33.347Z,24.46
2018-06-05T08:06:41.683Z,24.84
2018-06-05T08:07:49.488Z,25.19
2018-06-05T08:08:57.563Z,25.07
2018-06-05T08:10:05.638Z,24.93
2018-06-05T08:11:13.721Z,25.11
2018-06-05T08:12:21.789Z,25.56
2018-06-05T08:13:29.874Z,25.85
2018-06-05T08:14:37.958Z,26.08
2018-06-05T08:15:46.026Z,26.36
2018-06-05T08:16:54.083Z,26.71
2018-06-05T08:18:03.270Z,26.76
2018-06-05T08:19:10.299Z,27.15
2018-06-05T08:20:18.335Z,27.44
2018-06-05T08:21:26.423Z,27.53
2018-06-05T08:22:34.464Z,27.55
2018-06-05T08:23:42.573Z,27.83
2018-06-05T08:24:50.696Z,28.19
2018-06-05T08:25:58.732Z,28.23
2018-06-05T08:27:06.816Z,28.15
2018-06-05T08:28:14.921Z,28.18
2018-06-05T08:29:22.973Z,28.18
2018-06-05T08:30:31.066Z,28.45
2018-06-05T08:31:39.133Z,28.68
2018-06-05T08:32:47.221Z,28.92
2018-06-05T08:33:55.294Z,29.12
2018-06-05T08:35:03.402Z,29.27
2018-06-05T08:36:11.507Z,29.22
2018-06-05T08:37:19.548Z,29.22
2018-06-05T08:38:27.623Z,29.09
2018-06-05T08:39:35.719Z,29.37
2018-06-05T08:40:43.788Z,29.53
2018-06-05T08:41:51.874Z,29.39
2018-06-05T08:42:59.958Z,29.21
2018-06-05T08:44:08.394Z,29.12
2018-06-05T08:45:16.133Z,29.27
2018-06-05T08:46:24.196Z,29.21
2018-06-05T08:47:32.289Z,29.24
2018-06-05T08:48:40.385Z,29.06
2018-06-05T08:49:48.481Z,29.06
2018-06-05T08:50:56.798Z,28.94
2018-06-05T08:52:04.601Z,29.20
2018-06-05T08:53:12.716Z,28.93
2018-06-05T08:54:20.791Z,29.24
2018-06-05T08:55:28.874Z,28.97
2018-06-05T08:56:36.968Z,29.10
2018-06-05T08:57:45.045Z,29.09
2018-06-05T08:58:53.126Z,28.89
2018-06-05T09:00:01.413Z,28.53
2018-06-05T09:01:09.497Z,28.60
2018-06-05T09:02:17.585Z,28.92
2018-06-05T09:03:25.667Z,28.94
2018-06-05T09:04:33.741Z,29.16
2018-06-05T09:05:41.833Z,29.16
2018-06-05T09:06:49.921Z,29.02
2018-06-05T09:07:57.997Z,28.86
2018-06-05T09:09:06.116Z,28.74
2018-06-05T09:10:14.143Z,28.84
2018-06-05T09:11:22.243Z,28.57
2018-06-05T09:12:30.330Z,28.45
2018-06-05T09:13:38.431Z,28.49
2018-06-05T09:14:46.510Z,28.31
2018-06-05T09:15:54.595Z,28.34
2018-06-05T09:17:02.735Z,28.34
2018-06-05T09:18:10.759Z,28.38
2018-06-05T09:19:18.853Z,28.31
2018-06-05T09:20:26.935Z,28.16
2018-06-05T09:21:35.123Z,28.08
2018-06-05T09:22:43.103Z,27.90
2018-06-05T09:23:51.214Z,27.71
2018-06-05T09:24:59.281Z,27.50
2018-06-05T09:26:07.359Z,27.48
2018-06-05T09:27:15.441Z,27.15
2018-06-05T09:28:23.546Z,27.04
2018-06-05T09:29:31.609Z,27.00
2018-06-05T09:30:39.683Z,26.78
2018-06-05T09:31:47.759Z,26.61
2018-06-05T09:32:55.851Z,26.42
2018-06-05T09:34:03.911Z,26.15
2018-06-05T09:35:11.995Z,25.86
2018-06-05T09:36:20.085Z,25.83
2018-06-05T09:37:28.168Z,25.68
2018-06-05T09:38:37.246Z,25.70
2018-06-05T09:39:44.310Z,25.52
2018-06-05T09:40:52.392Z,25.58
2018-06-05T09:42:00.813Z,25.56
2018-06-05T09:43:08.900Z,25.59
2018-06-05T09:44:16.991Z,25.59
2018-06-05T09:45:25.048Z,25.44
2018-06-05T09:46:33.713Z,25.40
2018-06-05T09:47:40.862Z,25.46
2018-06-05T09:48:48.957Z,25.44
2018-06-05T09:49:57.025Z,25.21
2018-06-05T09:51:05.110Z,25.15
2018-06-05T09:52:13.232Z,24.93
2018-06-05T09:53:21.249Z,24.99
2018-06-05T09:54:29.318Z,25.04
2018-06-05T09:55:37.605Z,25.04
2018-06-05T09:56:45.683Z,24.99
2018-06-05T09:57:53.807Z,24.94
2018-06-05T09:59:04.218Z,24.86
2018-06-05T10:00:14.520Z,24.89
2018-06-05T10:01:22.615Z,24.84
2018-06-05T10:02:33.357Z,24.74
2018-06-05T10:03:39.399Z,24.85
2018-06-05T10:04:47.566Z,24.96
2018-06-05T10:05:55.502Z,24.86
2018-06-05T10:07:03.639Z,24.92
2018-06-05T10:08:11.666Z,24.96
2018-06-05T10:09:19.773Z,24.99
2018-06-05T10:10:27.832Z,25.09
2018-06-05T10:11:35.917Z,24.93
2018-06-05T10:12:43.934Z,24.92
2018-06-05T10:13:52.039Z,24.96
2018-06-05T10:15:00.120Z,24.96
2018-06-05T10:16:08.199Z,24.93
2018-06-05T10:17:16.274Z,24.96
2018-06-05T10:18:24.319Z,25.09
2018-06-05T10:19:32.418Z,24.93
2018-06-05T10:20:40.505Z,25.01
2018-06-05T10:21:48.568Z,25.06
2018-06-05T10:22:56.676Z,25.00
2018-06-05T10:24:04.690Z,25.06
2018-06-05T10:25:12.779Z,25.18
2018-06-05T10:26:20.919Z,25.15
2018-06-05T10:27:28.937Z,25.22
2018-06-05T10:28:37.016Z,25.18
2018-06-05T10:29:45.081Z,25.09
2018-06-05T10:30:53.172Z,25.11
2018-06-05T10:32:01.234Z,25.18
2018-06-05T10:33:09.299Z,25.25
2018-06-05T10:34:17.379Z,25.36
2018-06-05T10:35:25.457Z,25.37
2018-06-05T10:36:33.541Z,25.44
2018-06-05T10:37:41.611Z,25.49
2018-06-05T10:38:49.689Z,25.59
2018-06-05T10:39:57.759Z,25.59
2018-06-05T10:41:05.832Z,25.48
2018-06-05T10:42:13.923Z,25.48
2018-06-05T10:43:21.975Z,25.56
2018-06-05T10:44:30.038Z,25.58
2018-06-05T10:45:38.140Z,25.63
2018-06-05T10:46:46.305Z,25.71
2018-06-05T10:47:54.490Z,25.71
2018-06-05T10:49:02.351Z,25.71
2018-06-05T10:50:10.528Z,25.77
2018-06-05T10:51:18.495Z,25.83
2018-06-05T10:52:26.569Z,25.88
2018-06-05T10:53:34.629Z,25.88
2018-06-05T10:54:42.727Z,25.81
2018-06-05T10:55:50.791Z,25.89
2018-06-05T10:56:58.880Z,25.95
2018-06-05T10:58:06.933Z,25.92
2018-06-05T10:59:15.016Z,26.01
2018-06-05T11:00:23.147Z,25.99
2018-06-05T11:01:31.181Z,25.96
2018-06-05T11:02:39.264Z,25.98
2018-06-05T11:03:47.325Z,26.03
2018-06-05T11:04:55.394Z,25.99
2018-06-05T11:06:03.499Z,26.04
2018-06-05T11:07:11.558Z,26.01
2018-06-05T11:08:19.630Z,25.93
2018-06-05T11:09:27.898Z,26.01
2018-06-05T11:10:35.965Z,26.03
2018-06-05T11:11:44.012Z,26.16
2018-06-05T11:12:52.123Z,26.23
2018-06-05T11:14:00.240Z,26.15
2018-06-05T11:15:08.288Z,26.13
2018-06-05T11:16:16.332Z,26.26
2018-06-05T11:17:24.403Z,26.29
2018-06-05T11:18:32.502Z,26.27
2018-06-05T11:19:40.568Z,26.29
2018-06-05T11:20:48.643Z,26.36
2018-06-05T11:21:56.711Z,26.30
2018-06-05T11:23:04.780Z,26.39
2018-06-05T11:24:12.858Z,26.41
2018-06-05T11:25:20.934Z,26.46
2018-06-05T11:26:29.058Z,26.56
2018-06-05T11:27:37.086Z,26.60
2018-06-05T11:28:45.166Z,26.51
2018-06-05T11:29:53.236Z,26.59
2018-06-05T11:31:01.308Z,26.51
2018-06-05T11:32:09.401Z,26.52
2018-06-05T11:33:17.452Z,26.48
2018-06-05T11:34:25.524Z,26.45
2018-06-05T11:35:33.607Z,26.51
2018-06-05T11:36:41.940Z,26.53
2018-06-05T11:37:49.750Z,26.46
2018-06-05T11:38:57.838Z,26.52
2018-06-05T11:40:05.902Z,26.60
2018-06-05T11:41:13.956Z,26.64
2018-06-05T11:42:22.052Z,26.79
2018-06-05T11:43:30.115Z,26.73
2018-06-05T11:44:38.193Z,26.86
2018-06-05T11:45:46.269Z,26.78
2018-06-05T11:46:54.336Z,26.71
2018-06-05T11:48:02.436Z,26.73
2018-06-05T11:49:10.531Z,26.71
2018-06-05T11:50:18.590Z,26.68
2018-06-05T11:51:26.735Z,26.73
2018-06-05T11:52:34.706Z,26.64
2018-06-05T11:53:42.800Z,26.67
2018-06-05T11:54:50.860Z,26.74
2018-06-05T11:55:58.937Z,26.85
2018-06-05T11:57:07.018Z,26.85
2018-06-05T11:58:15.093Z,26.79
2018-06-05T11:59:23.159Z,26.98
2018-06-05T12:00:31.242Z,27.03
2018-06-05T12:01:39.350Z,27.00
2018-06-05T12:02:47.367Z,27.15
2018-06-05T12:03:55.447Z,27.08
2018-06-05T12:05:03.536Z,27.13
2018-06-05T12:06:11.601Z,27.25
2018-06-05T12:07:19.720Z,27.08
2018-06-05T12:08:27.749Z,27.25
2018-06-05T12:09:35.830Z,27.28
2018-06-05T12:10:43.900Z,27.29
2018-06-05T12:11:51.975Z,27.28
2018-06-05T12:13:00.054Z,27.35
2018-06-05T12:14:08.127Z,27.47
2018-06-05T12:15:16.209Z,27.44
2018-06-05T12:16:24.257Z,27.47
2018-06-05T12:17:32.344Z,27.50
2018-06-05T12:18:40.683Z,27.48
2018-06-05T12:19:48.496Z,27.48
2018-06-05T12:20:56.597Z,27.44
2018-06-05T12:22:04.630Z,27.43
2018-06-05T12:23:12.721Z,27.45
2018-06-05T12:24:20.791Z,27.43
2018-06-05T12:25:28.874Z,27.47
2018-06-05T12:26:36.938Z,27.38
2018-06-05T12:27:45.028Z,27.47
2018-06-05T12:28:53.093Z,27.48
2018-06-05T12:30:01.160Z,27.45
2018-06-05T12:31:09.250Z,27.41
2018-06-05T12:32:17.314Z,27.35
2018-06-05T12:33:25.389Z,27.29
2018-06-05T12:34:33.473Z,27.26
2018-06-05T12:35:41.535Z,27.16
2018-06-05T12:36:49.609Z,27.20
2018-06-05T12:37:57.681Z,27.28
2018-06-05T12:39:05.787Z,27.30
2018-06-05T12:40:13.827Z,27.28
2018-06-05T12:41:21.922Z,27.43
2018-06-05T12:42:29.990Z,27.57
2018-06-05T12:43:38.091Z,27.64
2018-06-05T12:44:46.131Z,27.72
2018-06-05T12:45:54.196Z,27.75
2018-06-05T12:47:02.292Z,27.93
2018-06-05T12:48:10.361Z,28.00
2018-06-05T12:49:18.439Z,28.06
2018-06-05T12:50:26.511Z,28.08
2018-06-05T12:51:34.596Z,28.08
2018-06-05T12:52:42.659Z,28.03
2018-06-05T12:53:50.739Z,27.98
2018-06-05T12:54:58.818Z,27.88
2018-06-05T12:56:06.889Z,27.93
2018-06-05T12:57:15.054Z,27.88
2018-06-05T12:58:23.026Z,27.78
2018-06-05T12:59:31.101Z,27.75
2018-06-05T13:00:39.182Z,27.57
2018-06-05T13:01:47.273Z,27.45
2018-06-05T13:02:55.350Z,27.40
2018-06-05T13:04:03.400Z,27.25
2018-06-05T13:05:11.495Z,27.34
2018-06-05T13:06:19.557Z,27.22
2018-06-05T13:07:27.633Z,27.07
2018-06-05T13:08:35.705Z,27.03
2018-06-05T13:09:43.872Z,27.03
2018-06-05T13:10:51.890Z,27.05
2018-06-05T13:11:59.935Z,26.92
2018-06-05T13:13:08.480Z,26.71
2018-06-05T13:14:16.289Z,26.67
2018-06-05T13:15:24.352Z,26.63
2018-06-05T13:16:32.432Z,26.60
2018-06-05T13:17:40.532Z,26.44
2018-06-05T13:18:48.939Z,26.44
2018-06-05T13:19:56.659Z,26.16
2018-06-05T13:21:04.731Z,26.18
2018-06-05T13:22:12.802Z,26.11
2018-06-05T13:23:20.877Z,26.29
2018-06-05T13:24:28.956Z,26.37
2018-06-05T13:25:37.077Z,26.51
2018-06-05T13:26:45.119Z,26.52
2018-06-05T13:27:53.177Z,26.56
2018-06-05T13:29:01.243Z,26.52
2018-06-05T13:30:09.321Z,26.56
2018-06-05T13:31:17.395Z,26.66
2018-06-05T13:32:25.475Z,26.52
2018-06-05T13:33:33.548Z,26.51
2018-06-05T13:34:41.624Z,26.52
2018-06-05T13:35:49.692Z,26.42
2018-06-05T13:36:57.774Z,26.33
2018-06-05T13:38:05.849Z,26.30
2018-06-05T13:39:13.915Z,26.24
2018-06-05T13:40:21.999Z,26.44
2018-06-05T13:41:30.067Z,26.31
2018-06-05T13:42:38.148Z,26.34
2018-06-05T13:43:46.260Z,26.30
2018-06-05T13:44:54.265Z,26.44
2018-06-05T13:46:02.354Z,26.39
2018-06-05T13:47:10.432Z,26.39
2018-06-05T13:48:18.565Z,26.36
2018-06-05T13:49:26.588Z,26.42
2018-06-05T13:50:34.686Z,26.49
2018-06-05T13:51:42.724Z,26.53
2018-06-05T13:52:50.817Z,26.51
2018-06-05T13:53:58.881Z,26.68
2018-06-05T13:55:06.964Z,26.73
2018-06-05T13:56:15.029Z,26.81
2018-06-05T13:57:23.094Z,26.78
2018-06-05T13:58:31.176Z,26.88
2018-06-05T13:59:39.282Z,26.88
2018-06-05T14:00:47.327Z,26.91
2018-06-05T14:01:55.396Z,26.88
2018-06-05T14:03:03.468Z,26.83
2018-06-05T14:04:11.553Z,26.88
2018-06-05T14:05:19.622Z,26.82
2018-06-05T14:06:27.692Z,26.71
2018-06-05T14:07:35.765Z,26.60
2018-06-05T14:08:43.827Z,26.56
2018-06-05T14:09:51.911Z,26.51
2018-06-05T14:10:59.988Z,26.44
2018-06-05T14:12:08.083Z,26.34
2018-06-05T14:13:16.389Z,26.39
2018-06-05T14:14:24.188Z,26.27
2018-06-05T14:15:32.291Z,26.24
2018-06-05T14:16:40.381Z,26.34
2018-06-05T14:17:48.464Z,26.31
2018-06-05T14:18:56.518Z,26.33
2018-06-05T14:20:04.645Z,26.39
2018-06-05T14:21:12.677Z,26.33
2018-06-05T14:22:20.750Z,26.18
2018-06-05T14:23:28.817Z,26.31
2018-06-05T14:24:37.164Z,26.27
2018-06-05T14:25:44.965Z,26.30
2018-06-05T14:26:53.036Z,26.29
2018-06-05T14:28:01.113Z,26.29
2018-06-05T14:29:09.203Z,26.26
2018-06-05T14:30:17.281Z,26.36
2018-06-05T14:31:25.346Z,26.36
2018-06-05T14:32:33.406Z,26.34
2018-06-05T14:33:41.497Z,26.31
2018-06-05T14:34:49.570Z,26.39
2018-06-05T14:35:57.638Z,26.39
2018-06-05T14:37:05.710Z,26.31